createdAt,value
2022-09-20T00:00:53.876Z,91.01
2022-09-20T00:01:53.798Z,90.36
2022-09-20T00:02:53.797Z,90.60
2022-09-20T00:03:53.774Z,90.97
2022-09-20T00:04:53.808Z,90.86
2022-09-20T00:05:53.769Z,90.97
2022-09-20T00:06:53.762Z,90.56
2022-09-20T00:07:53.746Z,90.77
2022-09-20T00:08:53.769Z,91.07
2022-09-20T00:09:53.753Z,90.45
2022-09-20T00:10:53.736Z,90.15
2022-09-20T00:11:53.728Z,90.36
2022-09-20T00:12:53.717Z,90.45
2022-09-20T00:13:53.831Z,90.66
2022-09-20T00:14:53.717Z,90.66
2022-09-20T00:15:53.694Z,90.45
2022-09-20T00:16:53.808Z,90.66
2022-09-20T00:17:53.673Z,90.66
2022-09-20T00:18:54.682Z,90.66
2022-09-20T00:19:53.660Z,90.45
2022-09-20T00:20:53.655Z,90.66
2022-09-20T00:21:53.679Z,89.64
2022-09-20T00:22:53.638Z,90.66
2022-09-20T00:23:53.729Z,89.84
2022-09-20T00:24:53.635Z,89.74
2022-09-20T00:25:53.635Z,89.84
2022-09-20T00:26:53.637Z,89.43
2022-09-20T00:27:53.619Z,90.25
2022-09-20T00:28:53.724Z,89.12
2022-09-20T00:29:53.604Z,89.23
2022-09-20T00:30:53.608Z,89.59
2022-09-20T00:31:53.646Z,89.53
2022-09-20T00:32:53.596Z,89.09
2022-09-20T00:33:53.583Z,89.29
2022-09-20T00:34:53.571Z,88.68
2022-09-20T00:35:53.562Z,88.68
2022-09-20T00:36:53.559Z,88.98
2022-09-20T00:37:53.573Z,88.88
2022-09-20T00:38:53.543Z,88.47
2022-09-20T00:39:53.546Z,88.68
2022-09-20T00:40:53.534Z,88.88
2022-09-20T00:41:53.524Z,88.68
2022-09-20T00:42:53.531Z,88.57
2022-09-20T00:43:53.518Z,87.76
2022-09-20T00:44:53.502Z,88.06
2022-09-20T00:45:53.527Z,87.96
2022-09-20T00:46:53.495Z,88.68
2022-09-20T00:47:53.479Z,88.47
2022-09-20T00:48:53.495Z,88.33
2022-09-20T00:49:53.482Z,88.57
2022-09-20T00:50:53.470Z,88.57
2022-09-20T00:51:53.459Z,87.85
2022-09-20T00:52:53.459Z,88.37
2022-09-20T00:53:53.466Z,88.26
2022-09-20T00:54:53.443Z,88.26
2022-09-20T00:55:53.443Z,88.06
2022-09-20T00:56:53.430Z,88.23
2022-09-20T00:57:53.428Z,88.06
2022-09-20T00:58:53.418Z,87.65
2022-09-20T00:59:53.427Z,87.55
2022-09-20T01:00:53.424Z,87.51
2022-09-20T01:01:53.426Z,87.41
2022-09-20T01:02:53.394Z,87.61
2022-09-20T01:03:53.383Z,88.17
2022-09-20T01:04:53.379Z,88.57
2022-09-20T01:05:53.375Z,88.78
2022-09-20T01:06:53.379Z,88.98
2022-09-20T01:07:53.359Z,89.33
2022-09-20T01:08:53.356Z,89.29
2022-09-20T01:09:53.342Z,89.12
2022-09-20T01:10:53.850Z,89.09
2022-09-20T01:11:53.342Z,89.64
2022-09-20T01:12:53.338Z,89.53
2022-09-20T01:13:53.322Z,90.05
2022-09-20T01:14:53.306Z,90.25
2022-09-20T01:15:53.309Z,89.47
2022-09-20T01:16:53.371Z,90.05
2022-09-20T01:17:53.310Z,89.53
2022-09-20T01:18:53.282Z,89.68
2022-09-20T01:19:54.286Z,90.30
2022-09-20T01:20:53.279Z,89.68
2022-09-20T01:21:53.274Z,89.06
2022-09-20T01:22:53.262Z,89.17
2022-09-20T01:23:53.271Z,88.96
2022-09-20T01:24:53.248Z,88.96
2022-09-20T01:25:53.234Z,88.65
2022-09-20T01:26:53.237Z,89.17
2022-09-20T01:27:53.249Z,88.96
2022-09-20T01:28:53.279Z,89.17
2022-09-20T01:29:53.210Z,89.37
2022-09-20T01:30:53.208Z,89.27
2022-09-20T01:31:53.263Z,88.76
2022-09-20T01:32:53.207Z,88.86
2022-09-20T01:33:53.182Z,88.65
2022-09-20T01:34:53.183Z,89.06
2022-09-20T01:35:53.170Z,88.56
2022-09-20T01:36:53.174Z,88.65
2022-09-20T01:37:53.158Z,88.45
2022-09-20T01:38:53.166Z,88.45
2022-09-20T01:39:53.144Z,88.45
2022-09-20T01:40:53.146Z,88.65
2022-09-20T01:41:53.170Z,88.45
2022-09-20T01:42:53.124Z,88.49
2022-09-20T01:43:53.217Z,88.59
2022-09-20T01:44:53.112Z,89.21
2022-09-20T01:45:53.173Z,89.42
2022-09-20T01:46:53.096Z,88.90
2022-09-20T01:47:53.090Z,89.31
2022-09-20T01:48:53.082Z,89.56
2022-09-20T01:49:53.068Z,89.87
2022-09-20T01:50:53.074Z,90.99
2022-09-20T01:51:53.054Z,90.58
2022-09-20T01:52:53.057Z,90.48
2022-09-20T01:53:53.046Z,90.69
2022-09-20T01:54:53.046Z,90.79
2022-09-20T01:55:53.050Z,90.69
2022-09-20T01:56:53.035Z,90.79
2022-09-20T01:57:53.030Z,90.58
2022-09-20T01:59:07.235Z,90.99
2022-09-20T01:59:55.006Z,90.28
2022-09-20T02:00:53.066Z,89.87
2022-09-20T02:01:53.090Z,89.97
2022-09-20T02:02:53.005Z,89.76
2022-09-20T02:03:52.978Z,89.87
2022-09-20T02:04:52.974Z,89.45
2022-09-20T02:05:52.966Z,89.36
2022-09-20T02:06:52.974Z,89.66
2022-09-20T02:07:52.963Z,89.42
2022-09-20T02:08:53.060Z,89.25
2022-09-20T02:09:52.946Z,89.56
2022-09-20T02:10:52.936Z,88.74
2022-09-20T02:11:52.946Z,88.90
2022-09-20T02:12:52.924Z,88.90
2022-09-20T02:13:52.910Z,89.15
2022-09-20T02:14:52.925Z,88.74
2022-09-20T02:15:52.902Z,89.21
2022-09-20T02:16:52.981Z,89.36
2022-09-20T02:17:53.894Z,89.42
2022-09-20T02:18:52.886Z,89.31
2022-09-20T02:19:52.877Z,89.42
2022-09-20T02:20:52.866Z,89.31
2022-09-20T02:21:52.862Z,89.31
2022-09-20T02:22:52.889Z,89.31
2022-09-20T02:23:52.895Z,89.83
2022-09-20T02:24:52.845Z,89.92
2022-09-20T02:25:52.842Z,89.62
2022-09-20T02:26:52.830Z,89.51
2022-09-20T02:27:52.834Z,89.06
2022-09-20T02:28:52.821Z,89.83
2022-09-20T02:29:52.815Z,89.58
2022-09-20T02:30:52.810Z,89.37
2022-09-20T02:31:52.854Z,88.90
2022-09-20T02:32:52.807Z,89.00
2022-09-20T02:33:52.789Z,89.17
2022-09-20T02:34:52.786Z,89.17
2022-09-20T02:35:52.776Z,89.42
2022-09-20T02:36:52.766Z,89.06
2022-09-20T02:37:52.773Z,89.31
2022-09-20T02:38:52.808Z,89.42
2022-09-20T02:39:52.752Z,89.17
2022-09-20T02:40:52.750Z,89.31
2022-09-20T02:41:52.741Z,89.17
2022-09-20T02:42:52.762Z,88.96
2022-09-20T02:43:52.717Z,89.00
2022-09-20T02:44:52.722Z,89.06
2022-09-20T02:45:52.814Z,89.37
2022-09-20T02:46:52.697Z,89.37
2022-09-20T02:47:52.701Z,89.37
2022-09-20T02:48:52.710Z,89.27
2022-09-20T02:49:52.678Z,88.59
2022-09-20T02:50:52.673Z,89.31
2022-09-20T02:51:52.669Z,89.37
2022-09-20T02:52:52.658Z,89.27
2022-09-20T02:53:52.745Z,89.42
2022-09-20T02:54:52.658Z,89.68
2022-09-20T02:55:52.645Z,89.68
2022-09-20T02:56:52.633Z,89.58
2022-09-20T02:57:52.634Z,89.51
2022-09-20T02:58:52.632Z,89.78
2022-09-20T02:59:52.618Z,89.51
2022-09-20T03:00:52.649Z,89.51
2022-09-20T03:01:52.634Z,89.83
2022-09-20T03:02:52.589Z,89.72
2022-09-20T03:03:52.593Z,90.03
2022-09-20T03:04:52.597Z,90.03
2022-09-20T03:05:52.638Z,90.84
2022-09-20T03:06:52.573Z,90.23
2022-09-20T03:07:52.565Z,89.92
2022-09-20T03:08:52.598Z,89.72
2022-09-20T03:09:52.549Z,89.62
2022-09-20T03:10:52.562Z,89.72
2022-09-20T03:11:52.537Z,89.27
2022-09-20T03:12:52.525Z,89.47
2022-09-20T03:13:52.525Z,89.42
2022-09-20T03:14:52.521Z,89.37
2022-09-20T03:15:52.510Z,89.42
2022-09-20T03:16:52.785Z,89.37
2022-09-20T03:17:52.493Z,89.17
2022-09-20T03:18:52.485Z,89.17
2022-09-20T03:19:52.484Z,89.37
2022-09-20T03:20:52.486Z,89.11
2022-09-20T03:21:52.481Z,88.49
2022-09-20T03:22:52.477Z,88.35
2022-09-20T03:23:52.490Z,88.56
2022-09-20T03:24:52.456Z,88.76
2022-09-20T03:25:52.445Z,89.06
2022-09-20T03:26:52.445Z,88.76
2022-09-20T03:27:52.441Z,89.06
2022-09-20T03:28:52.437Z,88.56
2022-09-20T03:29:52.414Z,88.56
2022-09-20T03:30:52.403Z,88.56
2022-09-20T03:31:52.487Z,89.17
2022-09-20T03:32:52.397Z,88.56
2022-09-20T03:33:52.413Z,88.65
2022-09-20T03:34:52.389Z,88.76
2022-09-20T03:35:52.382Z,89.27
2022-09-20T03:36:52.377Z,89.06
2022-09-20T03:37:52.369Z,89.37
2022-09-20T03:38:52.463Z,88.65
2022-09-20T03:39:52.353Z,88.45
2022-09-20T03:40:53.323Z,88.65
2022-09-20T03:41:52.346Z,88.86
2022-09-20T03:42:52.325Z,88.65
2022-09-20T03:43:52.335Z,88.51
2022-09-20T03:44:52.342Z,88.65
2022-09-20T03:45:52.369Z,88.51
2022-09-20T03:46:52.299Z,88.45
2022-09-20T03:47:52.305Z,88.76
2022-09-20T03:48:52.284Z,88.65
2022-09-20T03:49:53.294Z,88.76
2022-09-20T03:50:52.282Z,88.76
2022-09-20T03:51:52.282Z,88.86
2022-09-20T03:52:52.273Z,88.65
2022-09-20T03:53:52.262Z,88.76
2022-09-20T03:54:52.258Z,88.76
2022-09-20T03:55:52.270Z,89.06
2022-09-20T03:56:52.239Z,88.96
2022-09-20T03:57:52.233Z,89.17
2022-09-20T03:58:52.233Z,89.62
2022-09-20T03:59:52.229Z,89.68
2022-09-20T04:00:52.281Z,89.83
2022-09-20T04:01:52.268Z,90.39
2022-09-20T04:02:52.205Z,90.39
2022-09-20T04:03:52.273Z,90.75
2022-09-20T04:04:52.193Z,90.44
2022-09-20T04:05:52.191Z,90.84
2022-09-20T04:06:52.767Z,90.84
2022-09-20T04:07:52.173Z,90.64
2022-09-20T04:08:52.197Z,90.84
2022-09-20T04:09:52.163Z,90.69
2022-09-20T04:10:52.145Z,90.64
2022-09-20T04:11:52.154Z,90.79
2022-09-20T04:12:52.141Z,90.64
2022-09-20T04:13:52.129Z,90.69
2022-09-20T04:14:52.176Z,90.99
2022-09-20T04:15:52.116Z,91.30
2022-09-20T04:16:52.157Z,91.09
2022-09-20T04:17:52.115Z,91.09
2022-09-20T04:18:52.124Z,91.40
2022-09-20T04:19:52.089Z,91.09
2022-09-20T04:20:52.078Z,90.84
2022-09-20T04:21:52.073Z,91.26
2022-09-20T04:22:52.070Z,90.84
2022-09-20T04:23:52.074Z,90.64
2022-09-20T04:24:52.063Z,90.64
2022-09-20T04:25:52.054Z,90.44
2022-09-20T04:26:52.041Z,90.75
2022-09-20T04:27:52.035Z,90.60
2022-09-20T04:28:52.028Z,90.75
2022-09-20T04:29:52.031Z,90.75
2022-09-20T04:30:51.998Z,90.60
2022-09-20T04:31:54.057Z,89.83
2022-09-20T04:32:52.995Z,89.62
2022-09-20T04:33:51.986Z,89.62
2022-09-20T04:34:51.994Z,89.89
2022-09-20T04:35:51.976Z,90.34
2022-09-20T04:36:51.974Z,90.54
2022-09-20T04:37:51.960Z,90.64
2022-09-20T04:38:51.961Z,90.75
2022-09-20T04:39:51.967Z,90.44
2022-09-20T04:40:51.947Z,90.75
2022-09-20T04:41:51.939Z,90.70
2022-09-20T04:42:51.931Z,89.78
2022-09-20T04:43:51.926Z,90.19
2022-09-20T04:44:51.947Z,89.68
2022-09-20T04:45:51.956Z,89.58
2022-09-20T04:46:55.883Z,90.13
2022-09-20T04:47:52.895Z,89.58
2022-09-20T04:48:51.914Z,89.47
2022-09-20T04:49:51.903Z,89.58
2022-09-20T04:50:51.888Z,89.68
2022-09-20T04:51:51.867Z,89.37
2022-09-20T04:52:51.863Z,89.78
2022-09-20T04:53:51.856Z,89.31
2022-09-20T04:54:51.843Z,88.96
2022-09-20T04:55:51.855Z,89.37
2022-09-20T04:56:51.860Z,89.31
2022-09-20T04:57:51.819Z,89.31
2022-09-20T04:58:52.823Z,89.31
2022-09-20T04:59:51.822Z,89.31
2022-09-20T05:00:51.863Z,89.31
2022-09-20T05:01:51.839Z,89.42
2022-09-20T05:02:51.794Z,89.25
2022-09-20T05:03:51.785Z,89.42
2022-09-20T05:04:51.882Z,89.62
2022-09-20T05:05:51.818Z,89.42
2022-09-20T05:06:51.765Z,89.42
2022-09-20T05:07:51.750Z,89.62
2022-09-20T05:08:54.230Z,89.92
2022-09-20T05:09:52.748Z,90.23
2022-09-20T05:10:51.741Z,89.66
2022-09-20T05:11:51.738Z,89.51
2022-09-20T05:12:52.729Z,89.42
2022-09-20T05:13:51.727Z,89.51
2022-09-20T05:14:51.718Z,89.72
2022-09-20T05:15:51.708Z,89.72
2022-09-20T05:16:51.747Z,89.36
2022-09-20T05:17:51.704Z,89.21
2022-09-20T05:18:51.694Z,89.36
2022-09-20T05:19:51.683Z,89.45
2022-09-20T05:20:51.683Z,89.87
2022-09-20T05:21:51.687Z,89.72
2022-09-20T05:22:51.664Z,89.00
2022-09-20T05:23:51.658Z,89.11
2022-09-20T05:24:51.655Z,88.70
2022-09-20T05:25:51.642Z,88.59
2022-09-20T05:26:51.659Z,88.49
2022-09-20T05:27:51.634Z,88.59
2022-09-20T05:28:51.610Z,88.59
2022-09-20T05:29:51.623Z,88.70
2022-09-20T05:30:51.614Z,88.80
2022-09-20T05:31:51.704Z,88.90
2022-09-20T05:32:51.602Z,89.21
2022-09-20T05:33:51.590Z,88.70
2022-09-20T05:34:51.590Z,89.21
2022-09-20T05:35:51.591Z,88.76
2022-09-20T05:36:51.590Z,88.24
2022-09-20T05:37:51.570Z,88.59
2022-09-20T05:38:51.559Z,88.35
2022-09-20T05:39:51.554Z,88.45
2022-09-20T05:40:51.583Z,88.56
2022-09-20T05:41:51.547Z,88.29
2022-09-20T05:42:51.554Z,88.24
2022-09-20T05:43:51.530Z,88.14
2022-09-20T05:44:51.521Z,88.56
2022-09-20T05:45:51.538Z,88.56
2022-09-20T05:46:51.514Z,88.56
2022-09-20T05:47:51.513Z,87.59
2022-09-20T05:48:51.495Z,87.79
2022-09-20T05:49:51.482Z,88.10
2022-09-20T05:50:53.847Z,86.77
2022-09-20T05:51:51.478Z,87.08
2022-09-20T05:52:51.494Z,86.77
2022-09-20T05:53:51.462Z,86.88
2022-09-20T05:54:51.454Z,87.08
2022-09-20T05:55:51.454Z,87.29
2022-09-20T05:56:51.442Z,87.59
2022-09-20T05:57:51.450Z,87.24
2022-09-20T05:58:51.429Z,87.29
2022-09-20T05:59:51.427Z,87.04
2022-09-20T06:00:51.449Z,87.04
2022-09-20T06:01:51.406Z,86.63
2022-09-20T06:02:51.415Z,86.77
2022-09-20T06:03:51.390Z,86.16
2022-09-20T06:04:52.392Z,87.18
2022-09-20T06:05:51.383Z,87.08
2022-09-20T06:06:51.375Z,86.88
2022-09-20T06:07:51.393Z,87.29
2022-09-20T06:08:51.365Z,86.05
2022-09-20T06:09:51.360Z,87.12
2022-09-20T06:10:51.347Z,86.88
2022-09-20T06:11:51.347Z,87.02
2022-09-20T06:12:51.322Z,87.53
2022-09-20T06:13:51.353Z,87.43
2022-09-20T06:14:51.326Z,88.35
2022-09-20T06:15:51.313Z,88.14
2022-09-20T06:16:51.344Z,88.14
2022-09-20T06:17:51.346Z,87.84
2022-09-20T06:18:51.305Z,88.35
2022-09-20T06:19:51.290Z,88.04
2022-09-20T06:20:51.282Z,88.24
2022-09-20T06:21:51.266Z,88.35
2022-09-20T06:22:51.261Z,88.35
2022-09-20T06:23:51.266Z,88.10
2022-09-20T06:24:51.270Z,88.31
2022-09-20T06:25:51.252Z,88.41
2022-09-20T06:26:51.243Z,88.41
2022-09-20T06:27:51.230Z,87.18
2022-09-20T06:28:54.143Z,87.38
2022-09-20T06:29:52.238Z,87.90
2022-09-20T06:30:51.245Z,88.20
2022-09-20T06:31:51.218Z,87.38
2022-09-20T06:32:51.202Z,88.20
2022-09-20T06:33:51.186Z,88.00
2022-09-20T06:34:51.198Z,88.24
2022-09-20T06:35:52.386Z,88.41
2022-09-20T06:36:51.170Z,88.35
2022-09-20T06:37:51.850Z,88.20
2022-09-20T06:38:51.159Z,87.02
2022-09-20T06:39:51.150Z,88.41
2022-09-20T06:40:51.151Z,88.24
2022-09-20T06:41:51.139Z,88.24
2022-09-20T06:42:51.134Z,88.20
2022-09-20T06:43:51.122Z,88.45
2022-09-20T06:44:51.133Z,88.04
2022-09-20T06:45:51.178Z,88.35
2022-09-20T06:46:51.101Z,88.14
2022-09-20T06:47:51.095Z,87.90
2022-09-20T06:48:51.087Z,87.90
2022-09-20T06:49:51.150Z,87.90
2022-09-20T06:50:51.094Z,88.20
2022-09-20T06:51:51.076Z,88.20
2022-09-20T06:52:51.061Z,87.65
2022-09-20T06:53:51.053Z,87.35
2022-09-20T06:54:51.056Z,86.94
2022-09-20T06:55:51.068Z,86.73
2022-09-20T06:56:51.049Z,86.38
2022-09-20T06:57:51.031Z,86.38
2022-09-20T06:58:51.022Z,87.00
2022-09-20T06:59:51.017Z,86.35
2022-09-20T07:00:51.049Z,86.29
2022-09-20T07:01:51.078Z,85.94
2022-09-20T07:02:50.999Z,84.91
2022-09-20T07:03:50.993Z,85.02
2022-09-20T07:04:50.989Z,84.77
2022-09-20T07:05:50.977Z,84.50
2022-09-20T07:06:50.986Z,84.41
2022-09-20T07:07:50.962Z,84.75
2022-09-20T07:08:50.962Z,85.26
2022-09-20T07:09:50.957Z,84.85
2022-09-20T07:10:50.943Z,85.06
2022-09-20T07:11:50.946Z,85.36
2022-09-20T07:12:50.937Z,85.16
2022-09-20T07:13:50.921Z,84.85
2022-09-20T07:14:50.917Z,85.83
2022-09-20T07:15:50.919Z,85.42
2022-09-20T07:16:50.940Z,84.47
2022-09-20T07:17:50.902Z,83.51
2022-09-20T07:18:50.901Z,83.75
2022-09-20T07:19:51.885Z,83.20
2022-09-20T07:20:50.877Z,83.61
2022-09-20T07:21:50.885Z,83.30
2022-09-20T07:22:50.896Z,82.45
2022-09-20T07:23:50.862Z,82.45
2022-09-20T07:24:50.857Z,82.61
2022-09-20T07:25:50.849Z,82.71
2022-09-20T07:26:50.846Z,82.88
2022-09-20T07:27:50.862Z,82.78
2022-09-20T07:28:50.837Z,81.86
2022-09-20T07:29:50.837Z,80.91
2022-09-20T07:30:50.821Z,79.21
2022-09-20T07:31:50.905Z,80.33
2022-09-20T07:32:50.818Z,81.04
2022-09-20T07:33:50.818Z,80.74
2022-09-20T07:34:50.806Z,79.93
2022-09-20T07:35:50.785Z,80.78
2022-09-20T07:36:50.781Z,80.37
2022-09-20T07:37:50.789Z,79.96
2022-09-20T07:38:50.769Z,79.96
2022-09-20T07:39:50.777Z,80.47
2022-09-20T07:40:50.774Z,81.32
2022-09-20T07:41:50.768Z,81.94
2022-09-20T07:42:55.985Z,82.71
2022-09-20T07:43:51.737Z,80.98
2022-09-20T07:44:50.738Z,80.68
2022-09-20T07:45:50.754Z,81.73
2022-09-20T07:46:50.725Z,82.65
2022-09-20T07:47:50.740Z,82.75
2022-09-20T07:48:50.709Z,82.35
2022-09-20T07:49:50.705Z,83.30
2022-09-20T07:50:50.673Z,83.16
2022-09-20T07:51:50.696Z,83.61
2022-09-20T07:52:50.700Z,84.39
2022-09-20T07:53:50.673Z,83.57
2022-09-20T07:54:50.669Z,84.08
2022-09-20T07:55:50.665Z,83.37
2022-09-20T07:56:50.653Z,83.12
2022-09-20T07:57:50.654Z,81.90
2022-09-20T07:58:52.577Z,82.21
2022-09-20T07:59:50.647Z,82.61
2022-09-20T08:00:50.700Z,82.61
2022-09-20T08:01:50.664Z,81.90
2022-09-20T08:02:50.625Z,82.47
2022-09-20T08:03:50.643Z,82.13
2022-09-20T08:04:50.610Z,82.23
2022-09-20T08:05:50.609Z,80.87
2022-09-20T08:06:50.599Z,81.48
2022-09-20T08:07:50.589Z,80.52
2022-09-20T08:08:50.589Z,80.73
2022-09-20T08:09:50.566Z,79.77
2022-09-20T08:10:50.577Z,77.84
2022-09-20T08:11:50.565Z,77.81
2022-09-20T08:14:08.864Z,77.09
2022-09-20T08:14:52.557Z,77.13
2022-09-20T08:15:50.528Z,76.92
2022-09-20T08:16:50.621Z,76.72
2022-09-20T08:17:50.537Z,77.74
2022-09-20T08:18:50.532Z,77.94
2022-09-20T08:19:50.528Z,77.84
2022-09-20T08:20:50.504Z,78.05
2022-09-20T08:21:50.500Z,78.15
2022-09-20T08:23:12.734Z,77.98
2022-09-20T08:23:51.512Z,78.66
2022-09-20T08:24:50.477Z,77.84
2022-09-20T08:25:50.462Z,78.35
2022-09-20T08:26:50.472Z,78.15
2022-09-20T08:27:50.451Z,78.05
2022-09-20T08:28:50.453Z,78.05
2022-09-20T08:29:50.477Z,78.31
2022-09-20T08:30:50.433Z,78.35
2022-09-20T08:31:50.464Z,77.70
2022-09-20T08:32:50.433Z,76.62
2022-09-20T08:33:50.427Z,77.13
2022-09-20T08:34:50.536Z,76.92
2022-09-20T08:35:50.409Z,76.86
2022-09-20T08:36:50.404Z,77.87
2022-09-20T08:37:50.684Z,78.35
2022-09-20T08:39:59.697Z,78.82
2022-09-20T08:40:52.377Z,77.97
2022-09-20T08:41:50.373Z,78.08
2022-09-20T08:42:50.364Z,77.33
2022-09-20T08:43:50.362Z,77.94
2022-09-20T08:44:57.738Z,77.76
2022-09-20T08:45:52.418Z,77.15
2022-09-20T08:46:50.336Z,75.49
2022-09-20T08:47:50.329Z,74.07
2022-09-20T08:48:50.328Z,74.58
2022-09-20T08:49:56.395Z,76.20
2022-09-20T08:50:51.300Z,75.25
2022-09-20T08:51:50.302Z,72.41
2022-09-20T08:52:50.296Z,73.86
2022-09-20T08:53:50.284Z,71.77
2022-09-20T08:54:50.296Z,73.38
2022-09-20T08:55:50.265Z,72.74
2022-09-20T08:56:50.273Z,63.95
2022-09-20T08:57:50.264Z,57.90
2022-09-20T08:58:50.237Z,57.66
2022-09-20T08:59:50.244Z,56.71
2022-09-20T09:00:50.268Z,59.65
2022-09-20T09:01:50.228Z,59.48
2022-09-20T09:02:50.224Z,57.81
2022-09-20T09:03:50.221Z,57.90
2022-09-20T09:04:50.218Z,51.89
2022-09-20T09:05:50.214Z,47.35
2022-09-20T09:06:50.200Z,44.23
2022-09-20T09:07:50.216Z,47.44
2022-09-20T09:08:50.184Z,46.40
2022-09-20T09:09:50.180Z,46.18
2022-09-20T09:10:50.171Z,41.81
2022-09-20T09:11:50.156Z,41.65
2022-09-20T09:12:50.173Z,42.33
2022-09-20T09:13:50.149Z,43.76
2022-09-20T09:14:50.148Z,45.86
2022-09-20T09:15:50.191Z,45.50
2022-09-20T09:16:50.145Z,44.54
2022-09-20T09:17:50.128Z,43.57
2022-09-20T09:18:50.125Z,42.54
2022-09-20T09:19:50.112Z,40.25
2022-09-20T09:20:50.092Z,42.19
2022-09-20T09:21:50.097Z,39.78
2022-09-20T09:22:50.092Z,40.61
2022-09-20T09:23:50.084Z,39.56
2022-09-20T09:24:50.081Z,37.97
2022-09-20T09:25:50.072Z,38.01
2022-09-20T09:26:50.071Z,38.18
2022-09-20T09:27:50.052Z,38.73
2022-09-20T09:28:50.063Z,39.14
2022-09-20T09:29:50.044Z,38.68
2022-09-20T09:30:50.029Z,41.20
2022-09-20T09:31:50.155Z,41.95
2022-09-20T09:32:50.032Z,41.82
2022-09-20T09:33:50.032Z,43.86
2022-09-20T09:34:50.036Z,45.02
2022-09-20T09:35:50.011Z,46.38
2022-09-20T09:36:50.004Z,47.42
2022-09-20T09:37:49.995Z,51.07
2022-09-20T09:38:51.015Z,51.82
2022-09-20T09:39:49.994Z,51.67
2022-09-20T09:40:49.988Z,53.62
2022-09-20T09:41:49.982Z,57.54
2022-09-20T09:42:49.967Z,59.56
2022-09-20T09:43:49.961Z,62.30
2022-09-20T09:44:49.977Z,63.57
2022-09-20T09:45:50.043Z,62.90
2022-09-20T09:46:49.946Z,64.24
2022-09-20T09:47:49.944Z,64.64
2022-09-20T09:48:50.011Z,65.28
2022-09-20T09:49:49.943Z,64.98
2022-09-20T09:50:49.920Z,65.51
2022-09-20T09:51:49.921Z,66.62
2022-09-20T09:52:49.904Z,67.26
2022-09-20T09:53:49.898Z,67.19
2022-09-20T09:54:49.902Z,67.19
2022-09-20T09:55:49.882Z,67.39
2022-09-20T09:56:49.880Z,67.29
2022-09-20T09:57:49.876Z,67.16
2022-09-20T09:58:49.863Z,65.31
2022-09-20T09:59:49.854Z,66.39
2022-09-20T10:00:49.909Z,65.82
2022-09-20T10:01:49.958Z,66.58
2022-09-20T10:02:49.864Z,59.65
2022-09-20T10:03:49.827Z,58.61
2022-09-20T10:04:49.826Z,51.22
2022-09-20T10:05:49.827Z,50.70
2022-09-20T10:06:52.330Z,48.20
2022-09-20T10:07:50.800Z,46.42
2022-09-20T10:08:49.782Z,44.68
2022-09-20T10:09:49.790Z,41.63
2022-09-20T10:10:49.774Z,44.95
2022-09-20T10:11:49.794Z,43.09
2022-09-20T10:12:49.762Z,41.65
2022-09-20T10:13:49.758Z,40.58
2022-09-20T10:14:49.759Z,41.36
2022-09-20T10:15:49.766Z,42.13
2022-09-20T10:16:49.798Z,44.18
2022-09-20T10:17:49.732Z,45.00
2022-09-20T10:18:49.726Z,46.69
2022-09-20T10:19:49.707Z,42.83
2022-09-20T10:20:50.754Z,42.29
2022-09-20T10:21:49.703Z,43.82
2022-09-20T10:23:14.729Z,43.66
2022-09-20T10:24:03.146Z,45.42
2022-09-20T10:24:51.828Z,47.58
2022-09-20T10:25:50.783Z,47.20
2022-09-20T10:26:50.702Z,47.33
2022-09-20T10:27:49.702Z,48.87
2022-09-20T10:28:49.663Z,48.92
2022-09-20T10:29:49.658Z,48.64
2022-09-20T10:30:49.692Z,49.04
2022-09-20T10:31:49.642Z,49.26
2022-09-20T10:32:49.659Z,50.69
2022-09-20T10:33:49.626Z,50.59
2022-09-20T10:34:49.634Z,50.49
2022-09-20T10:35:49.610Z,50.79
2022-09-20T10:36:50.610Z,51.12
2022-09-20T10:37:49.697Z,50.81
2022-09-20T10:38:49.642Z,50.89
2022-09-20T10:39:49.599Z,50.29
2022-09-20T10:40:49.595Z,50.57
2022-09-20T10:41:49.578Z,50.62
2022-09-20T10:42:49.570Z,48.87
2022-09-20T10:43:49.591Z,49.05
2022-09-20T10:44:49.554Z,47.55
2022-09-20T10:46:27.915Z,47.03
2022-09-20T10:46:51.646Z,46.76
2022-09-20T10:47:49.547Z,45.82
2022-09-20T10:48:49.543Z,46.34
2022-09-20T10:49:50.872Z,45.66
2022-09-20T10:50:49.523Z,46.70
2022-09-20T10:51:49.511Z,46.23
2022-09-20T10:52:49.504Z,46.97
2022-09-20T10:53:49.518Z,47.60
2022-09-20T10:54:49.494Z,48.42
2022-09-20T10:55:49.488Z,48.94
2022-09-20T10:56:49.487Z,49.14
2022-09-20T10:57:49.474Z,48.84
2022-09-20T10:58:49.487Z,47.84
2022-09-20T10:59:49.467Z,48.04
2022-09-20T11:00:49.487Z,48.90
2022-09-20T11:01:49.518Z,49.17
2022-09-20T11:02:49.434Z,48.27
2022-09-20T11:03:49.438Z,48.35
2022-09-20T11:04:49.451Z,47.35
2022-09-20T11:05:49.426Z,47.67
2022-09-20T11:06:49.418Z,47.37
2022-09-20T11:07:49.487Z,47.67
2022-09-20T11:08:49.394Z,47.74
2022-09-20T11:09:49.410Z,48.57
2022-09-20T11:10:49.385Z,48.86
2022-09-20T11:11:49.382Z,49.62
2022-09-20T11:12:49.374Z,48.60
2022-09-20T11:13:49.375Z,48.99
2022-09-20T11:14:49.378Z,48.29
2022-09-20T11:15:49.370Z,47.69
2022-09-20T11:16:49.411Z,47.60
2022-09-20T11:17:49.350Z,47.69
2022-09-20T11:18:49.341Z,47.61
2022-09-20T11:19:49.341Z,48.44
2022-09-20T11:20:49.339Z,47.76
2022-09-20T11:21:49.321Z,48.69
2022-09-20T11:22:49.308Z,48.76
2022-09-20T11:23:49.301Z,48.89
2022-09-20T11:24:49.297Z,48.76
2022-09-20T11:25:49.302Z,47.57
2022-09-20T11:26:49.329Z,48.55
2022-09-20T11:27:49.281Z,44.98
2022-09-20T11:28:49.274Z,41.69
2022-09-20T11:29:49.271Z,39.63
2022-09-20T11:30:49.273Z,39.42
2022-09-20T11:31:49.287Z,40.29
2022-09-20T11:32:49.253Z,37.32
2022-09-20T11:33:49.242Z,38.51
2022-09-20T11:34:49.233Z,37.60
2022-09-20T11:35:49.237Z,38.35
2022-09-20T11:36:49.226Z,36.84
2022-09-20T11:37:49.221Z,35.14
2022-09-20T11:38:53.010Z,37.08
2022-09-20T11:39:50.202Z,38.84
2022-09-20T11:40:49.210Z,40.01
2022-09-20T11:41:49.218Z,41.34
2022-09-20T11:42:49.181Z,40.96
2022-09-20T11:43:49.177Z,43.29
2022-09-20T11:44:49.165Z,43.93
2022-09-20T11:45:49.297Z,45.59
2022-09-20T11:46:49.170Z,47.48
2022-09-20T11:47:56.225Z,47.63
2022-09-20T11:48:51.149Z,48.85
2022-09-20T11:49:49.135Z,50.17
2022-09-20T11:50:49.137Z,50.70
2022-09-20T11:51:49.129Z,50.94
2022-09-20T11:52:49.129Z,50.94
2022-09-20T11:53:49.118Z,50.16
2022-09-20T11:54:49.118Z,49.96
2022-09-20T11:55:49.105Z,50.01
2022-09-20T11:56:49.093Z,50.21
2022-09-20T11:57:49.081Z,50.21
2022-09-20T11:58:49.083Z,50.63
2022-09-20T11:59:49.094Z,50.62
2022-09-20T12:00:49.069Z,50.54
2022-09-20T12:01:49.101Z,49.91
2022-09-20T12:02:49.184Z,50.54
2022-09-20T12:03:49.049Z,48.94
2022-09-20T12:04:49.105Z,47.92
2022-09-20T12:05:49.053Z,44.73
2022-09-20T12:06:49.035Z,47.83
2022-09-20T12:07:49.029Z,42.86
2022-09-20T12:08:49.021Z,45.25
2022-09-20T12:09:49.018Z,39.87
2022-09-20T12:10:49.013Z,41.26
2022-09-20T12:11:49.002Z,40.60
2022-09-20T12:12:48.993Z,38.88
2022-09-20T12:13:49.032Z,38.73
2022-09-20T12:14:48.982Z,36.21
2022-09-20T12:15:48.990Z,36.21
2022-09-20T12:16:48.999Z,36.19
2022-09-20T12:17:48.953Z,35.58
2022-09-20T12:18:48.955Z,35.28
2022-09-20T12:19:48.941Z,34.27
2022-09-20T12:20:48.946Z,34.28
2022-09-20T12:21:49.534Z,33.49
2022-09-20T12:22:49.921Z,34.25
2022-09-20T12:23:48.937Z,34.23
2022-09-20T12:24:48.913Z,34.06
2022-09-20T12:25:48.918Z,34.61
2022-09-20T12:26:48.901Z,36.31
2022-09-20T12:27:49.857Z,36.62
2022-09-20T12:28:48.897Z,37.34
2022-09-20T12:29:48.885Z,36.77
2022-09-20T12:30:49.085Z,37.41
2022-09-20T12:31:49.034Z,37.54
2022-09-20T12:32:48.867Z,38.65
2022-09-20T12:33:48.862Z,39.76
2022-09-20T12:34:48.852Z,40.26
2022-09-20T12:35:48.834Z,39.69
2022-09-20T12:36:48.841Z,40.20
2022-09-20T12:37:49.825Z,40.52
2022-09-20T12:38:48.813Z,41.22
2022-09-20T12:39:48.817Z,42.21
2022-09-20T12:40:48.814Z,41.99
2022-09-20T12:41:48.809Z,41.58
2022-09-20T12:42:48.797Z,41.82
2022-09-20T12:43:48.797Z,42.41
2022-09-20T12:44:48.782Z,41.66
2022-09-20T12:45:48.808Z,40.44
2022-09-20T12:46:48.789Z,41.95
2022-09-20T12:47:48.769Z,40.50
2022-09-20T12:48:48.762Z,38.07
2022-09-20T12:49:48.892Z,39.39
2022-09-20T12:50:48.753Z,40.60
2022-09-20T12:51:48.733Z,39.32
2022-09-20T12:52:48.751Z,40.32
2022-09-20T12:53:48.730Z,40.48
2022-09-20T12:54:48.715Z,40.40